Time;durP1;ratioP1;P1;durP2;ratioP2;P2;SDS_P1;SDS_P2;PMS_P1;PMS_P2;Temp;Humidity;BMP_temperature;BMP_pressure;BME280_temperature;BME280_humidity;BME280_pressure;Samples;Min_cycle;Max_cycle;Signal;HPM_P1;HPM_P2
2022/05/17 05:01:23;;;;;;;11.60;5.65;;;14.60;99.90;;;;;;6104547;23;21158;31
2022/05/17 05:03:50;;;;;;;14.47;6.20;;;14.80;99.90;;;;;;6134322;23;20056;-80
2022/05/17 05:06:21;;;;;;;9.27;4.90;;;14.80;99.90;;;;;;6117475;23;20002;-80
2022/05/17 05:08:56;;;;;;;10.18;4.60;;;14.90;99.90;;;;;;6150346;23;20017;-79
2022/05/17 05:11:23;;;;;;;9.88;4.95;;;15.00;99.90;;;;;;6149834;23;20006;-80
2022/05/17 05:13:49;;;;;;;9.60;4.75;;;15.00;99.90;;;;;;6150300;23;20034;-79
2022/05/17 05:16:19;;;;;;;10.90;5.00;;;15.10;99.90;;;;;;6137585;23;20026;-78
2022/05/17 05:18:45;;;;;;;12.30;5.30;;;15.20;99.90;;;;;;6143852;23;20002;-78
2022/05/17 05:21:14;;;;;;;17.70;5.45;;;15.30;99.90;;;;;;6134582;23;20363;-80
2022/05/17 05:23:41;;;;;;;9.25;4.75;;;15.40;99.90;;;;;;6134619;23;20191;-80
2022/05/17 05:26:26;;;;;;;10.05;5.30;;;15.50;99.90;;;;;;6110169;23;20010;-79
2022/05/17 05:28:52;;;;;;;11.65;5.75;;;15.60;99.90;;;;;;6085838;23;20016;-83
2022/05/17 05:31:23;;;;;;;12.07;5.20;;;15.70;99.90;;;;;;6108772;23;20010;-83
2022/05/17 05:33:50;;;;;;;9.07;5.10;;;15.80;99.90;;;;;;6134921;23;20136;-80
2022/05/17 05:36:16;;;;;;;10.55;4.72;;;15.80;99.90;;;;;;6084579;23;20187;-78
2022/05/17 05:39:02;;;;;;;7.22;4.40;;;15.90;99.90;;;;;;6138073;23;20002;-82
2022/05/17 05:41:52;;;;;;;10.63;4.45;;;16.00;99.90;;;;;;6119692;23;19994;-81
2022/05/17 05:44:21;;;;;;;8.20;4.70;;;16.20;99.90;;;;;;6091458;23;20002;-81
2022/05/17 05:46:47;;;;;;;16.73;6.28;;;16.30;99.90;;;;;;6108418;23;20014;-79
2022/05/17 05:49:14;;;;;;;14.60;5.43;;;16.30;99.90;;;;;;6134933;23;20315;-81
2022/05/17 05:51:40;;;;;;;11.38;4.65;;;16.40;99.90;;;;;;6108867;23;19997;-79
2022/05/17 05:54:06;;;;;;;9.68;4.65;;;16.50;99.90;;;;;;6134404;23;20286;-79
2022/05/17 05:56:32;;;;;;;9.40;4.47;;;16.60;99.90;;;;;;6134546;23;19990;-80
2022/05/17 05:58:59;;;;;;;10.07;4.72;;;16.80;99.90;;;;;;6134066;23;20352;-80
2022/05/17 06:01:26;;;;;;;9.50;4.78;;;16.90;99.90;;;;;;6110470;23;20337;-80
2022/05/17 06:03:53;;;;;;;9.18;4.25;;;16.90;99.90;;;;;;6137844;23;20020;-80
2022/05/17 06:06:19;;;;;;;9.73;4.13;;;17.10;99.90;;;;;;6164460;23;20190;-81
2022/05/17 06:08:44;;;;;;;7.82;4.05;;;17.20;99.90;;;;;;6113432;23;20002;-80
2022/05/17 06:11:10;;;;;;;6.90;4.10;;;17.20;99.90;;;;;;6164195;23;20271;-79
2022/05/17 06:13:36;;;;;;;9.73;4.57;;;17.30;99.90;;;;;;6163920;23;20006;-80
2022/05/17 06:16:03;;;;;;;11.68;3.97;;;17.40;99.90;;;;;;6137773;23;20095;-81
2022/05/17 06:18:29;;;;;;;8.50;4.18;;;17.60;99.90;;;;;;6138848;23;20016;-79
2022/05/17 06:20:56;;;;;;;9.90;4.45;;;17.70;99.90;;;;;;6137539;23;20392;-79
2022/05/17 06:23:23;;;;;;;8.13;4.07;;;17.80;99.90;;;;;;6138469;23;20010;-79
2022/05/17 06:25:50;;;;;;;9.88;4.90;;;17.90;99.90;;;;;;6137842;23;20010;-79
2022/05/17 06:28:16;;;;;;;13.48;5.18;;;18.00;99.90;;;;;;6134828;23;20010;-79
2022/05/17 06:30:42;;;;;;;10.45;5.28;;;18.10;99.90;;;;;;6161161;23;20020;-79
2022/05/17 06:33:09;;;;;;;11.55;5.18;;;18.20;99.90;;;;;;6161975;23;20037;-80
2022/05/17 06:35:37;;;;;;;10.40;4.18;;;18.40;99.70;;;;;;6136826;23;20001;-80
2022/05/17 06:38:04;;;;;;;9.50;4.95;;;18.50;99.30;;;;;;6137352;23;20068;-80
2022/05/17 06:40:31;;;;;;;10.93;4.80;;;18.60;98.70;;;;;;6162757;23;19993;-80
2022/05/17 06:43:00;;;;;;;14.57;5.05;;;18.70;98.50;;;;;;6135931;23;20017;-79
2022/05/17 06:45:26;;;;;;;11.30;5.03;;;18.70;98.20;;;;;;6136300;23;20014;-81
2022/05/17 06:47:55;;;;;;;8.85;4.82;;;18.70;97.90;;;;;;6136390;23;20013;-83
2022/05/17 06:50:21;;;;;;;14.25;4.80;;;18.90;97.80;;;;;;6163279;23;20297;-82
2022/05/17 06:52:50;;;;;;;8.18;4.30;;;19.00;97.40;;;;;;6162188;23;20012;-80
2022/05/17 06:55:16;;;;;;;10.32;5.57;;;19.20;97.10;;;;;;6136932;23;20029;-82
2022/05/17 06:57:51;;;;;;;10.55;5.00;;;19.40;96.70;;;;;;6141571;23;20057;-81
2022/05/17 07:00:19;;;;;;;10.00;4.07;;;19.40;96.70;;;;;;6139235;23;20056;-81
2022/05/17 07:02:48;;;;;;;14.30;5.03;;;19.70;95.90;;;;;;6135744;23;20195;-81
2022/05/17 07:05:18;;;;;;;10.55;4.85;;;19.80;95.60;;;;;;6111933;23;20017;-80
2022/05/17 07:07:43;;;;;;;13.18;4.90;;;20.00;95.20;;;;;;6137907;23;20060;-82
2022/05/17 07:13:20;;;;;;;15.50;5.78;;;20.20;94.50;;;;;;6137439;23;20252;-81
2022/05/17 07:15:56;;;;;;;10.00;5.68;;;20.20;94.90;;;;;;6136880;23;20018;-78
2022/05/17 07:18:24;;;;;;;11.75;4.88;;;20.30;94.20;;;;;;6164749;23;20005;-82
2022/05/17 07:20:53;;;;;;;8.30;4.25;;;20.40;94.20;;;;;;6138126;23;20194;-80
2022/05/17 07:23:21;;;;;;;6.25;3.88;;;20.50;93.80;;;;;;6114713;23;20009;-81
2022/05/17 07:25:47;;;;;;;9.63;4.68;;;20.70;93.70;;;;;;6138812;23;19993;-78
2022/05/17 07:28:19;;;;;;;8.13;4.57;;;20.70;93.40;;;;;;6138689;23;20016;-79
2022/05/17 07:30:46;;;;;;;8.70;4.50;;;20.90;93.00;;;;;;6161996;23;20017;-81
2022/05/17 07:33:12;;;;;;;7.85;3.97;;;20.90;92.90;;;;;;6163933;23;20017;-83
2022/05/17 07:35:38;;;;;;;9.35;4.30;;;21.10;92.50;;;;;;6163625;23;20071;-80
2022/05/17 07:38:07;;;;;;;9.88;4.10;;;21.30;92.40;;;;;;6164331;23;20001;-80
2022/05/17 07:40:34;;;;;;;14.07;4.55;;;21.40;91.90;;;;;;6163842;23;20001;-81
2022/05/17 07:43:00;;;;;;;8.93;3.92;;;21.60;91.60;;;;;;6137316;23;20008;-80
2022/05/17 07:45:27;;;;;;;9.48;4.55;;;21.70;91.60;;;;;;6137658;23;20002;-80
2022/05/17 07:47:53;;;;;;;10.23;3.97;;;21.90;90.90;;;;;;6163646;23;20001;-79
2022/05/17 07:50:19;;;;;;;9.65;4.05;;;21.70;90.80;;;;;;6164769;23;19990;-79
2022/05/17 07:52:45;;;;;;;8.25;4.40;;;21.90;90.90;;;;;;6137921;23;20013;-81
2022/05/17 07:55:11;;;;;;;8.10;4.00;;;22.00;89.00;;;;;;6140593;23;20010;-79
2022/05/17 07:57:38;;;;;;;9.02;4.03;;;22.20;89.40;;;;;;6164324;23;20001;-80
2022/05/17 08:00:06;;;;;;;7.13;3.88;;;22.30;89.10;;;;;;6121934;23;20032;-81
2022/05/17 08:02:37;;;;;;;6.82;3.58;;;22.40;87.90;;;;;;6116360;23;20025;-80
2022/05/17 08:05:03;;;;;;;7.95;3.75;;;22.40;88.30;;;;;;6162958;23;20010;-80
2022/05/17 08:07:29;;;;;;;6.47;3.60;;;22.60;87.90;;;;;;6164152;23;20021;-80
2022/05/17 08:09:55;;;;;;;9.93;3.33;;;22.70;87.50;;;;;;6162092;23;20057;-81
2022/05/17 08:12:21;;;;;;;6.32;3.90;;;22.90;87.10;;;;;;6137666;23;20013;-78
2022/05/17 08:14:48;;;;;;;8.40;3.55;;;23.10;86.20;;;;;;6163068;23;20008;-79
2022/05/17 08:17:14;;;;;;;6.30;2.78;;;23.10;84.70;;;;;;6163009;23;20040;-79
2022/05/17 08:19:40;;;;;;;8.00;3.20;;;23.20;84.40;;;;;;6163655;23;20021;-80
2022/05/17 08:22:10;;;;;;;9.73;3.25;;;23.40;83.70;;;;;;6137386;23;20119;-80
2022/05/17 08:27:31;;;;;;;5.22;2.30;;;23.50;80.60;;;;;;6163636;23;20013;-78
2022/05/17 08:29:59;;;;;;;6.70;2.65;;;23.60;79.00;;;;;;6163290;23;20002;-79
2022/05/17 08:35:09;;;;;;;7.75;2.20;;;23.70;76.70;;;;;;6163064;23;20002;-80
2022/05/17 08:37:35;;;;;;;6.40;2.60;;;23.80;77.40;;;;;;6137494;23;20306;-78
2022/05/17 08:40:01;;;;;;;3.80;1.92;;;24.00;78.50;;;;;;6136454;23;20057;-79
2022/05/17 08:42:49;;;;;;;5.40;2.10;;;24.10;76.30;;;;;;6162872;23;20009;-80
2022/05/17 08:45:17;;;;;;;;;;;24.10;76.20;;;;;;6137236;23;20313;-78
2022/05/17 08:47:50;;;;;;;5.32;2.20;;;24.30;76.50;;;;;;6113084;23;19900;-78
2022/05/17 08:50:22;;;;;;;9.02;2.58;;;24.60;75.10;;;;;;6137123;23;20006;-78
2022/05/17 08:52:48;;;;;;;5.55;2.45;;;24.70;74.80;;;;;;6133151;23;20326;-79
2022/05/17 08:55:38;;;;;;;5.82;2.83;;;24.90;74.40;;;;;;6133849;23;20008;-79
2022/05/17 08:58:27;;;;;;;4.45;2.25;;;25.00;74.80;;;;;;6159933;23;20008;-80
2022/05/17 09:01:01;;;;;;;7.57;2.33;;;25.30;74.00;;;;;;6131227;23;20073;-80
2022/05/17 09:03:56;;;;;;;6.43;2.47;;;25.20;74.00;;;;;;6159857;23;20014;-80
2022/05/17 09:07:16;;;;;;;7.80;3.05;;;25.10;74.50;;;;;;6134898;23;20164;-79
2022/05/17 09:10:03;;;;;;;6.28;2.58;;;25.00;74.10;;;;;;6012822;23;20035;-80
2022/05/17 09:12:39;;;;;;;5.72;2.50;;;25.20;73.70;;;;;;6098789;23;20046;-79
2022/05/17 09:15:06;;;;;;;6.95;2.67;;;25.30;72.80;;;;;;6096486;23;20075;-80
2022/05/17 09:17:34;;;;;;;8.38;2.55;;;25.50;72.50;;;;;;6098822;23;20509;-80
2022/05/17 09:20:01;;;;;;;4.90;2.33;;;25.70;71.80;;;;;;6098509;23;19995;-79
2022/05/17 09:22:27;;;;;;;3.58;2.00;;;25.90;70.70;;;;;;6098192;23;20014;-79
2022/05/17 09:24:59;;;;;;;5.90;3.03;;;26.10;70.40;;;;;;6074428;23;20237;-79
2022/05/17 09:27:37;;;;;;;6.78;2.30;;;26.20;69.90;;;;;;6097874;23;20049;-79
2022/05/17 09:30:27;;;;;;;6.35;2.20;;;26.30;69.70;;;;;;6073872;23;20010;-81
2022/05/17 09:33:05;;;;;;;5.55;2.58;;;26.60;68.40;;;;;;6074903;23;20234;-80
2022/05/17 09:35:36;;;;;;;8.07;2.72;;;26.30;68.80;;;;;;6075687;23;20021;-81
2022/05/17 09:38:04;;;;;;;5.97;2.25;;;26.20;68.20;;;;;;6109144;23;20008;-81
2022/05/17 09:40:38;;;;;;;7.75;2.80;;;26.30;69.60;;;;;;6109549;23;20006;-81
2022/05/17 09:43:08;;;;;;;7.85;2.85;;;26.50;69.30;;;;;;6101565;23;20014;-81
2022/05/17 09:45:49;;;;;;;9.27;2.50;;;26.50;69.90;;;;;;6099368;23;20015;-81
2022/05/17 09:48:31;;;;;;;6.47;2.85;;;26.40;69.60;;;;;;6099887;23;19998;-81
2022/05/17 09:53:50;;;;;;;7.28;2.65;;;26.30;68.50;;;;;;6102438;23;20106;-81
2022/05/17 09:56:25;;;;;;;7.22;2.90;;;26.50;69.00;;;;;;6099973;23;20229;-80
2022/05/17 09:58:51;;;;;;;4.45;2.38;;;26.50;68.40;;;;;;6099249;23;20018;-80
2022/05/17 10:01:28;;;;;;;7.82;2.30;;;26.60;68.40;;;;;;6099114;23;20170;-82
2022/05/17 10:04:12;;;;;;;5.78;2.28;;;26.60;68.70;;;;;;6099162;23;20022;-79
2022/05/17 10:06:42;;;;;;;6.35;2.42;;;26.50;68.80;;;;;;6071893;23;20006;-80
2022/05/17 10:09:25;;;;;;;8.43;2.60;;;26.50;67.90;;;;;;6097055;23;20225;-80
2022/05/17 10:11:58;;;;;;;4.63;2.08;;;26.20;67.90;;;;;;6098002;23;20010;-80
2022/05/17 10:14:36;;;;;;;3.55;2.00;;;26.30;67.20;;;;;;6096030;23;20011;-79
2022/05/17 10:17:14;;;;;;;5.97;2.20;;;26.30;67.20;;;;;;6096015;23;20019;-79
2022/05/17 10:19:55;;;;;;;5.32;1.92;;;26.50;68.00;;;;;;6097450;23;20006;-79
2022/05/17 10:22:42;;;;;;;5.60;2.13;;;26.50;67.30;;;;;;6073522;23;20003;-78
2022/05/17 10:25:28;;;;;;;4.68;2.15;;;26.70;67.70;;;;;;6071402;23;20015;-80
2022/05/17 10:28:01;;;;;;;6.68;2.25;;;26.90;66.70;;;;;;6096922;23;20233;-80
2022/05/17 10:30:36;;;;;;;6.60;2.70;;;26.80;67.00;;;;;;6065907;23;20055;-80
2022/05/17 10:33:06;;;;;;;3.17;1.90;;;26.90;67.20;;;;;;6066062;23;20409;-80
2022/05/17 10:35:42;;;;;;;6.00;2.20;;;27.10;66.60;;;;;;6067685;23;20015;-80
2022/05/17 10:38:12;;;;;;;6.65;2.42;;;27.20;66.00;;;;;;6067434;23;20011;-80
2022/05/17 10:40:43;;;;;;;7.68;2.83;;;27.50;65.20;;;;;;6066907;23;20011;-81
2022/05/17 10:43:16;;;;;;;8.20;2.55;;;27.50;64.90;;;;;;6045717;23;20385;-82
2022/05/17 10:45:49;;;;;;;5.60;2.00;;;27.70;64.60;;;;;;6068415;23;20011;-81
2022/05/17 10:48:44;;;;;;;4.43;2.22;;;27.80;64.40;;;;;;6045657;23;20253;-81
2022/05/17 10:51:44;;;;;;;5.15;2.15;;;27.80;64.00;;;;;;6045236;23;20376;-82
2022/05/17 10:54:24;;;;;;;5.05;2.00;;;27.80;64.30;;;;;;6044822;23;20315;-82
2022/05/17 10:57:25;;;;;;;5.15;2.20;;;27.80;63.00;;;;;;6067779;23;20034;-81
2022/05/17 11:00:14;;;;;;;5.50;2.30;;;27.70;62.40;;;;;;6043515;23;20018;-83
2022/05/17 11:03:02;;;;;;;5.30;2.17;;;28.00;62.10;;;;;;6132986;23;20032;-83
2022/05/17 11:06:08;;;;;;;4.63;1.88;;;27.90;61.50;;;;;;6159835;23;20056;-83
2022/05/17 11:09:26;;;;;;;6.75;1.98;;;28.00;61.40;;;;;;6136306;23;20025;-82
2022/05/17 11:12:10;;;;;;;5.53;2.00;;;28.00;61.40;;;;;;6073068;23;20063;-82
2022/05/17 11:14:43;;;;;;;7.05;1.77;;;28.30;62.20;;;;;;6049017;23;20237;-81
2022/05/17 11:17:35;;;;;;;4.90;2.33;;;28.50;62.70;;;;;;6072725;23;20015;-82
2022/05/17 11:20:34;;;;;;;4.47;1.73;;;28.40;60.90;;;;;;6072909;23;20022;-82
2022/05/17 11:23:46;;;;;;;4.45;1.80;;;28.50;60.20;;;;;;6046472;23;20336;-81
2022/05/17 11:26:15;;;;;;;5.75;2.38;;;28.90;59.80;;;;;;6047624;23;20018;-81
2022/05/17 11:28:56;;;;;;;4.38;1.80;;;29.20;59.30;;;;;;6072838;23;20010;-81
2022/05/17 11:31:52;;;;;;;4.05;1.55;;;29.70;59.30;;;;;;6072825;23;20018;-81
2022/05/17 11:34:31;;;;;;;3.63;1.90;;;30.30;58.40;;;;;;6049260;23;20074;-82
2022/05/17 11:37:01;;;;;;;8.60;2.00;;;30.70;57.70;;;;;;6072896;23;20018;-81
2022/05/17 11:39:29;;;;;;;4.38;1.50;;;30.90;57.40;;;;;;6073140;23;20467;-81
2022/05/17 11:42:29;;;;;;;6.28;1.40;;;31.60;55.80;;;;;;6048574;23;20107;-82
2022/05/17 11:45:51;;;;;;;2.95;1.38;;;33.00;53.80;;;;;;6048784;23;20134;-81
2022/05/17 11:48:58;;;;;;;2.88;1.20;;;33.00;53.80;;;;;;6086145;23;20074;-80
2022/05/17 11:51:56;;;;;;;3.80;1.20;;;34.40;53.30;;;;;;6048759;23;20018;-81
2022/05/17 11:54:45;;;;;;;4.07;1.10;;;36.00;51.40;;;;;;6072955;23;20049;-82
2022/05/17 11:57:32;;;;;;;2.42;0.95;;;36.70;50.00;;;;;;6072240;23;20017;-81
2022/05/17 12:00:04;;;;;;;3.22;1.20;;;37.00;48.30;;;;;;6048171;23;20034;-82
2022/05/17 12:02:59;;;;;;;2.85;1.20;;;36.30;48.60;;;;;;6072133;23;20071;-82
2022/05/17 12:05:47;;;;;;;3.78;0.80;;;36.90;48.40;;;;;;6072520;23;20261;-82
2022/05/17 12:08:31;;;;;;;2.90;1.10;;;36.70;47.90;;;;;;6073058;23;20017;-83
2022/05/17 12:11:11;;;;;;;3.08;0.93;;;37.10;47.10;;;;;;6048044;23;20011;-82
2022/05/17 12:14:01;;;;;;;3.35;1.23;;;37.30;48.20;;;;;;6073159;23;20021;-81
2022/05/17 12:16:36;;;;;;;3.35;1.10;;;37.90;47.90;;;;;;6024563;23;20010;-82
2022/05/17 12:19:35;;;;;;;2.65;1.00;;;37.70;48.40;;;;;;6048211;23;20069;-80
2022/05/17 12:22:23;;;;;;;2.72;1.05;;;38.00;47.50;;;;;;6072366;23;20014;-81
2022/05/17 12:25:13;;;;;;;3.15;0.70;;;38.40;47.00;;;;;;6072478;23;20011;-80
2022/05/17 12:27:45;;;;;;;1.95;0.80;;;39.40;46.40;;;;;;6042701;23;20016;-81
2022/05/17 12:33:11;;;;;;;8.00;0.90;;;38.70;46.30;;;;;;6132954;23;20210;-81
2022/05/17 12:35:38;;;;;;;4.82;0.63;;;39.70;45.70;;;;;;6130872;23;20006;-82
2022/05/17 12:43:02;;;;;;;8.03;0.80;;;39.50;44.70;;;;;;6131115;23;20006;-81
2022/05/17 12:43:48;;;;;;;2.03;0.60;;;40.40;43.60;;;;;;6136196;23;20299;-81
2022/05/17 12:46:31;;;;;;;2.45;0.73;;;41.10;42.90;;;;;;6106977;23;20061;-81
2022/05/17 12:49:12;;;;;;;1.30;0.45;;;42.10;43.00;;;;;;6131597;23;20017;-82
2022/05/17 12:51:38;;;;;;;2.67;0.60;;;42.70;42.60;;;;;;6109221;23;20002;-81
2022/05/17 12:54:13;;;;;;;1.50;0.40;;;42.60;41.90;;;;;;6135991;23;20036;-81
2022/05/17 12:56:43;;;;;;;3.00;0.50;;;41.90;40.90;;;;;;6108887;23;20049;-80
2022/05/17 12:59:11;;;;;;;2.05;0.60;;;42.80;41.40;;;;;;6131853;23;20006;-82
2022/05/17 13:01:40;;;;;;;1.83;0.47;;;42.90;41.40;;;;;;6133585;23;20362;-83
2022/05/17 13:04:12;;;;;;;1.60;0.40;;;43.40;41.20;;;;;;6137023;23;20036;-82
2022/05/17 13:06:50;;;;;;;2.65;0.50;;;42.90;41.00;;;;;;6138467;23;20010;-83
2022/05/17 13:09:24;;;;;;;2.45;0.73;;;44.00;40.80;;;;;;6138166;23;20069;-81
2022/05/17 13:11:52;;;;;;;2.83;0.70;;;44.40;41.00;;;;;;6163659;23;20012;-82
2022/05/17 13:14:34;;;;;;;2.40;0.70;;;44.20;40.90;;;;;;6138372;23;20006;-81
2022/05/17 13:17:09;;;;;;;1.65;0.60;;;44.40;40.90;;;;;;6136246;23;20217;-81
2022/05/17 13:19:38;;;;;;;2.15;0.57;;;43.50;41.40;;;;;;6138160;23;20028;-81
2022/05/17 13:22:05;;;;;;;2.70;0.77;;;43.10;40.80;;;;;;6137423;23;20291;-82
2022/05/17 13:24:43;;;;;;;3.50;1.00;;;43.80;41.70;;;;;;6138242;23;20005;-81
2022/05/17 13:27:31;;;;;;;2.90;0.80;;;43.60;41.50;;;;;;6113188;23;20174;-81
2022/05/17 13:30:05;;;;;;;1.63;0.80;;;43.60;41.50;;;;;;6163465;23;20005;-81
2022/05/17 13:32:40;;;;;;;1.95;0.73;;;44.40;41.10;;;;;;6163310;23;20013;-82
2022/05/17 13:35:08;;;;;;;2.47;0.73;;;45.20;40.90;;;;;;6136906;23;20012;-82
2022/05/17 13:37:35;;;;;;;1.67;0.50;;;45.40;41.10;;;;;;6163681;23;19990;-81
2022/05/17 13:40:02;;;;;;;2.63;0.60;;;45.20;40.40;;;;;;6137399;23;20097;-81
2022/05/17 13:42:35;;;;;;;3.15;0.75;;;44.80;39.20;;;;;;6137456;23;20311;-82
2022/05/17 13:45:25;;;;;;;2.55;0.60;;;44.90;39.50;;;;;;6163544;23;20002;-81
2022/05/17 13:47:55;;;;;;;1.77;0.40;;;45.00;39.40;;;;;;6162998;23;20017;-83
2022/05/17 13:50:25;;;;;;;1.85;0.45;;;45.70;39.50;;;;;;6168853;23;19990;-80
2022/05/17 13:53:08;;;;;;;1.38;0.57;;;44.10;39.80;;;;;;6169617;23;20029;-82
2022/05/17 13:55:39;;;;;;;1.83;0.52;;;43.80;40.60;;;;;;6143141;23;20013;-80
2022/05/17 13:58:46;;;;;;;1.63;0.50;;;44.30;40.00;;;;;;6138231;23;20006;-83
2022/05/17 14:01:23;;;;;;;3.45;0.60;;;46.10;40.30;;;;;;6136035;23;20017;-80
2022/05/17 14:04:06;;;;;;;1.58;0.43;;;47.90;38.80;;;;;;6137299;23;20064;-81
2022/05/17 14:06:58;;;;;;;5.13;1.77;;;47.50;38.20;;;;;;6163933;23;20054;-81
2022/05/17 14:12:19;;;;;;;2.47;0.73;;;45.60;39.60;;;;;;6137858;23;20012;-81
2022/05/17 14:14:51;;;;;;;7.72;3.88;;;47.10;39.10;;;;;;6164053;23;20009;-80
2022/05/17 14:17:23;;;;;;;3.67;1.52;;;46.30;39.10;;;;;;6163736;23;20354;-79
2022/05/17 14:19:59;;;;;;;4.47;2.88;;;44.90;39.10;;;;;;6140335;23;20017;-81
2022/05/17 14:22:30;;;;;;;5.00;3.35;;;42.30;40.40;;;;;;6139931;23;20006;-80
2022/05/17 14:24:57;;;;;;;4.90;2.88;;;41.30;40.60;;;;;;6139144;23;20283;-81
2022/05/17 14:27:23;;;;;;;16.52;11.27;;;42.80;40.60;;;;;;6165454;23;20309;-81
2022/05/17 14:29:49;;;;;;;17.63;14.25;;;44.20;39.80;;;;;;6115270;23;20014;-82
2022/05/17 14:32:21;;;;;;;3.20;1.80;;;45.40;39.40;;;;;;6137825;23;20085;-82
2022/05/17 14:34:47;;;;;;;2.85;1.10;;;46.00;38.80;;;;;;6113819;23;20029;-80
2022/05/17 14:37:13;;;;;;;1.88;0.88;;;47.00;38.90;;;;;;6114379;23;20250;-83
2022/05/17 14:39:40;;;;;;;1.70;0.60;;;47.20;37.40;;;;;;6165358;23;20005;-79
2022/05/17 14:42:07;;;;;;;3.25;0.60;;;46.20;37.90;;;;;;6138565;23;20001;-80
2022/05/17 14:44:33;;;;;;;2.35;0.40;;;46.80;37.70;;;;;;6139426;23;20314;-82
2022/05/17 14:47:11;;;;;;;1.65;0.70;;;47.10;38.00;;;;;;6137742;23;20029;-80
2022/05/17 14:49:37;;;;;;;2.53;0.68;;;46.80;37.40;;;;;;6166168;23;20025;-80
2022/05/17 14:52:03;;;;;;;3.15;0.63;;;47.30;37.60;;;;;;6164674;23;20028;-80
2022/05/17 14:54:35;;;;;;;2.67;0.57;;;46.20;38.30;;;;;;6115484;23;20010;-81
2022/05/17 14:57:01;;;;;;;1.70;0.40;;;45.20;38.40;;;;;;6138979;23;20009;-81
2022/05/17 14:59:26;;;;;;;2.15;0.45;;;46.00;37.20;;;;;;6139239;23;20009;-81
2022/05/17 15:01:53;;;;;;;1.17;0.30;;;45.60;37.90;;;;;;6164271;23;20013;-81
2022/05/17 15:04:25;;;;;;;0.95;0.30;;;46.20;36.90;;;;;;6164703;23;20052;-81
2022/05/17 15:06:55;;;;;;;2.28;0.70;;;45.50;36.30;;;;;;6165503;23;20012;-80
2022/05/17 15:09:27;;;;;;;0.70;0.32;;;44.90;37.30;;;;;;6138882;23;20001;-81
2022/05/17 15:11:54;;;;;;;2.28;0.50;;;44.60;37.20;;;;;;6165156;23;20002;-81
2022/05/17 15:14:21;;;;;;;1.88;0.50;;;45.10;37.00;;;;;;6163634;23;19993;-81
2022/05/17 15:16:47;;;;;;;1.42;0.50;;;44.90;37.20;;;;;;6164374;23;20069;-81
2022/05/17 15:19:19;;;;;;;1.50;0.50;;;45.50;38.10;;;;;;6139416;23;20474;-80
2022/05/17 15:21:49;;;;;;;3.08;0.50;;;47.70;37.80;;;;;;6139339;23;20279;-81
2022/05/17 15:24:16;;;;;;;2.78;0.65;;;48.60;37.00;;;;;;6164044;23;20015;-82
2022/05/17 15:26:43;;;;;;;2.40;0.70;;;49.50;37.40;;;;;;6138792;23;19996;-82
2022/05/17 15:29:10;;;;;;;1.58;0.70;;;49.90;36.80;;;;;;6164441;23;20002;-81
2022/05/17 15:31:42;;;;;;;3.05;0.65;;;49.50;36.90;;;;;;6164117;23;20012;-81
2022/05/17 15:34:09;;;;;;;1.98;0.60;;;47.80;36.80;;;;;;6138346;23;20005;-81
2022/05/17 15:36:35;;;;;;;2.78;0.70;;;47.20;37.50;;;;;;6139347;23;20032;-81
2022/05/17 15:39:03;;;;;;;2.15;0.80;;;46.40;37.90;;;;;;6139019;23;19998;-81
2022/05/17 15:41:29;;;;;;;2.78;0.93;;;45.80;38.20;;;;;;6139084;23;20016;-82
2022/05/17 15:43:58;;;;;;;2.95;0.95;;;45.60;38.50;;;;;;6139376;23;20009;-82
2022/05/17 15:46:25;;;;;;;1.65;0.63;;;46.10;38.60;;;;;;6138109;23;20014;-81
2022/05/17 15:54:23;;;;;;;2.78;0.75;;;45.40;39.10;;;;;;6165178;23;20012;-82
2022/05/17 15:56:51;;;;;;;1.77;0.70;;;44.00;39.90;;;;;;6165080;23;19993;-82
2022/05/17 15:59:19;;;;;;;;;;;42.10;40.80;;;;;;6138773;23;20108;-82
2022/05/17 16:01:55;;;;;;;3.60;0.70;;;40.70;43.00;;;;;;6136699;23;19952;-81
2022/05/17 16:04:55;;;;;;;3.63;0.83;;;37.70;43.30;;;;;;6125070;23;20028;-82
2022/05/17 16:10:00;;;;;;;2.08;0.80;;;37.60;44.20;;;;;;6165015;23;20009;-81
2022/05/17 16:12:26;;;;;;;3.03;1.10;;;39.20;43.70;;;;;;6139455;23;20009;-82
2022/05/17 16:14:51;;;;;;;2.88;1.00;;;39.40;43.20;;;;;;6140200;23;20030;-81
2022/05/17 16:17:26;;;;;;;3.20;1.05;;;38.60;43.30;;;;;;6138821;23;20047;-83
2022/05/17 16:19:58;;;;;;;5.50;1.48;;;39.20;43.60;;;;;;6166070;23;20068;-82
2022/05/17 16:22:25;;;;;;;4.50;1.08;;;40.40;43.10;;;;;;6164171;23;19998;-82
2022/05/17 16:24:52;;;;;;;3.05;0.80;;;41.90;42.50;;;;;;6166484;23;20009;-84
2022/05/17 16:27:25;;;;;;;2.22;0.88;;;42.90;41.20;;;;;;6165866;23;20001;-83
2022/05/17 16:30:00;;;;;;;2.42;0.90;;;43.80;40.60;;;;;;6141988;23;20246;-80
2022/05/17 16:32:28;;;;;;;2.70;0.80;;;44.00;40.20;;;;;;6173633;23;20013;-80
2022/05/17 16:34:58;;;;;;;2.50;0.80;;;43.90;39.60;;;;;;6180782;23;20029;-81
2022/05/17 16:37:54;;;;;;;2.20;0.80;;;43.80;39.80;;;;;;6174226;23;20001;-82
2022/05/17 16:40:53;;;;;;;2.70;1.15;;;41.90;40.60;;;;;;6167646;23;20005;-81
2022/05/17 16:44:03;;;;;;;1.77;0.70;;;39.90;41.70;;;;;;6138959;23;20013;-81
2022/05/17 16:46:31;;;;;;;2.17;0.90;;;38.80;42.60;;;;;;6161254;23;20013;-83
2022/05/17 16:49:28;;;;;;;2.65;0.70;;;37.00;44.00;;;;;;6165318;23;20191;-83
2022/05/17 16:51:55;;;;;;;2.42;0.82;;;36.00;44.70;;;;;;6139514;23;20235;-82
2022/05/17 16:54:24;;;;;;;3.25;1.20;;;35.00;46.70;;;;;;6164343;23;20013;-81
2022/05/17 16:56:51;;;;;;;5.75;1.00;;;34.30;47.00;;;;;;6163690;23;20232;-81
2022/05/17 16:59:32;;;;;;;3.70;0.90;;;33.60;48.10;;;;;;6138810;23;20302;-81
2022/05/17 17:02:05;;;;;;;2.85;1.48;;;33.50;48.70;;;;;;6123767;23;20037;-81
2022/05/17 17:04:33;;;;;;;3.03;0.88;;;33.30;48.30;;;;;;6140567;23;20303;-81
2022/05/17 17:07:24;;;;;;;3.05;1.10;;;33.00;48.60;;;;;;6139512;23;20057;-82
2022/05/17 17:09:59;;;;;;;4.78;1.33;;;32.70;48.60;;;;;;6139466;23;20008;-82
2022/05/17 17:12:25;;;;;;;4.32;1.00;;;32.50;48.80;;;;;;6164572;23;20257;-81
2022/05/17 17:14:51;;;;;;;2.33;1.00;;;32.40;48.20;;;;;;6165138;23;20004;-81
2022/05/17 17:17:18;;;;;;;3.25;1.00;;;33.00;47.70;;;;;;6138355;23;20019;-81
2022/05/17 17:19:48;;;;;;;2.97;0.70;;;34.50;47.00;;;;;;6165045;23;20021;-81
2022/05/17 17:22:14;;;;;;;2.72;0.90;;;36.00;44.90;;;;;;6139111;23;20006;-82
2022/05/17 17:24:44;;;;;;;3.40;0.77;;;36.70;43.70;;;;;;6138875;23;20177;-84
2022/05/17 17:27:12;;;;;;;4.13;1.20;;;36.90;43.40;;;;;;6138033;23;20001;-80
2022/05/17 17:29:38;;;;;;;2.63;1.25;;;37.80;43.30;;;;;;6139361;23;20208;-81
2022/05/17 17:37:53;;;;;;;3.53;0.77;;;38.50;45.90;;;;;;6139168;23;20002;-82
2022/05/17 17:40:48;;;;;;;5.30;0.70;;;38.50;45.60;;;;;;6138678;23;20291;-83
2022/05/17 17:43:18;;;;;;;3.80;0.95;;;37.80;45.00;;;;;;6163030;23;20025;-84
2022/05/17 17:45:45;;;;;;;10.93;6.13;;;36.50;47.30;;;;;;6164467;23;20060;-85
2022/05/17 17:48:14;;;;;;;3.42;1.00;;;35.00;46.70;;;;;;6163561;23;20247;-85
2022/05/17 17:50:41;;;;;;;2.63;1.00;;;34.80;49.10;;;;;;6138239;23;20227;-85
2022/05/17 17:53:07;;;;;;;7.65;5.18;;;34.40;50.20;;;;;;6114292;23;20028;-84
2022/05/17 17:55:34;;;;;;;4.32;1.60;;;34.30;50.50;;;;;;6138923;23;20298;-86
2022/05/17 17:58:21;;;;;;;6.05;3.30;;;33.90;52.20;;;;;;6139106;23;20013;-84
2022/05/17 18:01:10;;;;;;;6.70;4.00;;;33.70;54.40;;;;;;6162735;23;20024;-83
2022/05/17 18:04:01;;;;;;;4.72;1.63;;;33.20;55.60;;;;;;6163410;23;20080;-84
2022/05/17 18:06:27;;;;;;;5.75;2.22;;;32.20;56.10;;;;;;6137456;23;20457;-82
2022/05/17 18:09:08;;;;;;;5.90;2.08;;;31.20;57.80;;;;;;6092721;23;20073;-83
2022/05/17 18:11:35;;;;;;;4.40;1.88;;;30.30;59.50;;;;;;6137765;23;20033;-84
2022/05/17 18:14:06;;;;;;;4.07;1.35;;;29.60;64.00;;;;;;6138501;23;20010;-83
2022/05/17 18:16:36;;;;;;;4.20;1.50;;;28.80;64.90;;;;;;6164574;23;20017;-84
2022/05/17 18:19:07;;;;;;;4.07;1.35;;;28.40;56.40;;;;;;6137451;23;20143;-81
2022/05/17 18:21:37;;;;;;;3.53;1.42;;;27.90;57.00;;;;;;6163164;23;20025;-82
2022/05/17 18:24:05;;;;;;;6.82;1.42;;;27.50;58.10;;;;;;6136644;23;20220;-83
2022/05/17 18:26:49;;;;;;;2.88;1.20;;;27.20;57.90;;;;;;6136722;23;20009;-82
2022/05/17 18:29:36;;;;;;;4.45;1.30;;;27.00;58.50;;;;;;6163072;23;20301;-81
2022/05/17 18:32:03;;;;;;;5.57;1.45;;;26.60;58.90;;;;;;6137332;23;20013;-83
2022/05/17 18:37:17;;;;;;;3.20;1.30;;;26.30;59.70;;;;;;6164527;23;20009;-86
2022/05/17 18:39:47;;;;;;;2.75;1.60;;;26.20;60.00;;;;;;6138929;23;20009;-87
2022/05/17 18:42:14;;;;;;;3.17;1.40;;;26.20;60.00;;;;;;6137027;23;20004;-87
2022/05/17 18:44:43;;;;;;;4.25;1.00;;;25.90;60.20;;;;;;6115574;23;20009;-86
2022/05/17 18:47:11;;;;;;;3.10;1.30;;;25.80;60.80;;;;;;6160685;23;20013;-85
2022/05/17 18:49:38;;;;;;;3.42;1.17;;;25.60;61.30;;;;;;6141169;23;20044;-86
2022/05/17 18:55:34;;;;;;;3.30;1.60;;;25.30;62.10;;;;;;6163154;23;20024;-86
2022/05/17 18:58:01;;;;;;;3.00;1.35;;;25.20;62.50;;;;;;6139885;23;20005;-86
2022/05/17 19:00:34;;;;;;;3.30;1.42;;;25.10;62.80;;;;;;6135814;23;20017;-86